Time;durP1;ratioP1;P1;durP2;ratioP2;P2;SDS_P1;SDS_P2;PMS_P1;PMS_P2;Temp;Humidity;BMP_temperature;BMP_pressure;BME280_temperature;BME280_humidity;BME280_pressure;Samples;Min_cycle;Max_cycle;Signal;HPM_P1;HPM_P2
2021/10/30 07:11:23;;;;;;;15.80;12.38;;;11.20;99.90;;;;;;5948856;24;20033;-43
2021/10/30 07:13:49;;;;;;;16.40;13.80;;;11.10;99.90;;;;;;5949506;24;20039;-46
2021/10/30 07:16:18;;;;;;;15.93;13.50;;;11.20;99.90;;;;;;5948938;24;20039;-45
2021/10/30 07:18:45;;;;;;;17.60;13.45;;;11.10;99.90;;;;;;5925781;24;20094;-50
2021/10/30 07:21:12;;;;;;;17.33;13.23;;;11.10;99.90;;;;;;5925041;24;20024;-50
2021/10/30 07:23:38;;;;;;;20.70;13.45;;;11.10;99.90;;;;;;5950053;24;20427;-49
2021/10/30 07:26:05;;;;;;;18.83;13.73;;;11.10;99.90;;;;;;5949877;24;20355;-47
2021/10/30 07:28:32;;;;;;;18.45;14.50;;;11.10;99.90;;;;;;5948524;24;20028;-45
2021/10/30 07:30:59;;;;;;;16.17;14.45;;;11.00;99.90;;;;;;5924345;24;20213;-46
2021/10/30 07:33:25;;;;;;;17.58;15.65;;;11.00;99.90;;;;;;5949643;24;20485;-45
2021/10/30 07:35:54;;;;;;;19.35;14.60;;;11.00;99.90;;;;;;5925522;24;20359;-46
2021/10/30 07:38:22;;;;;;;18.05;14.20;;;11.00;99.90;;;;;;5949908;24;20107;-45
2021/10/30 07:40:50;;;;;;;17.10;15.27;;;11.00;99.90;;;;;;5949236;24;20028;-44
2021/10/30 07:43:16;;;;;;;18.45;16.08;;;11.00;99.90;;;;;;5949367;24;20027;-43
2021/10/30 07:45:43;;;;;;;18.33;14.43;;;11.00;99.90;;;;;;5949390;24;20044;-44
2021/10/30 07:48:09;;;;;;;20.48;14.73;;;11.00;99.90;;;;;;5950101;24;20037;-44
2021/10/30 07:50:35;;;;;;;20.55;15.00;;;10.90;99.90;;;;;;5949826;24;20028;-42
2021/10/30 07:53:02;;;;;;;20.80;16.00;;;11.00;99.90;;;;;;5949872;24;20029;-43
2021/10/30 07:55:31;;;;;;;17.33;14.70;;;11.00;99.90;;;;;;5949249;24;20028;-43
2021/10/30 07:57:59;;;;;;;20.67;15.90;;;11.00;99.90;;;;;;5925959;24;20032;-41
2021/10/30 08:00:25;;;;;;;20.90;14.82;;;11.00;99.90;;;;;;5924173;24;20127;-43
2021/10/30 08:02:55;;;;;;;16.95;14.05;;;11.00;99.90;;;;;;5949977;24;20355;-43
2021/10/30 08:05:24;;;;;;;19.13;16.60;;;11.00;99.90;;;;;;5948899;24;20494;-43
2021/10/30 08:07:51;;;;;;;18.90;15.60;;;11.00;99.90;;;;;;5949501;24;20064;-43
2021/10/30 08:10:21;;;;;;;22.77;15.45;;;11.00;99.90;;;;;;5949059;24;20037;-42
2021/10/30 08:12:47;;;;;;;21.90;16.23;;;11.00;99.90;;;;;;5948915;24;20048;-43
2021/10/30 08:15:14;;;;;;;21.00;16.38;;;11.00;99.90;;;;;;5949832;24;20125;-43
2021/10/30 08:17:40;;;;;;;19.30;14.18;;;11.00;99.90;;;;;;5949912;24;20101;-44
2021/10/30 08:20:07;;;;;;;20.98;15.90;;;11.00;99.90;;;;;;5949435;24;20082;-45
2021/10/30 08:22:33;;;;;;;18.35;16.30;;;11.00;99.90;;;;;;5949647;24;20024;-45
2021/10/30 08:25:00;;;;;;;22.85;16.80;;;11.00;99.90;;;;;;5950065;24;20084;-44
2021/10/30 08:27:27;;;;;;;18.92;15.93;;;11.00;99.90;;;;;;5937699;24;20036;-45
2021/10/30 08:29:53;;;;;;;21.17;17.35;;;11.00;99.90;;;;;;5949332;24;20028;-43
2021/10/30 08:32:19;;;;;;;24.42;19.98;;;11.00;99.90;;;;;;5902205;24;20538;-42
2021/10/30 08:34:47;;;;;;;21.42;17.42;;;11.00;99.90;;;;;;5949370;24;20455;-42
2021/10/30 08:37:14;;;;;;;21.60;16.80;;;11.10;99.90;;;;;;5948843;24;20033;-41
2021/10/30 08:39:40;;;;;;;24.10;16.70;;;11.10;99.90;;;;;;5948708;24;20036;-43
2021/10/30 08:42:07;;;;;;;20.13;16.25;;;11.10;99.90;;;;;;5948999;24;20028;-41
2021/10/30 08:44:37;;;;;;;20.30;15.77;;;11.20;99.90;;;;;;5924595;24;20040;-45
2021/10/30 08:47:07;;;;;;;19.88;16.77;;;11.10;99.90;;;;;;5949326;24;20123;-42
2021/10/30 08:49:38;;;;;;;17.52;15.10;;;11.20;99.90;;;;;;5948778;24;20093;-42
2021/10/30 08:52:05;;;;;;;19.65;17.58;;;11.30;99.90;;;;;;5948559;24;20076;-42
2021/10/30 08:54:34;;;;;;;20.83;16.25;;;11.30;99.90;;;;;;5947952;24;20384;-41
2021/10/30 08:57:03;;;;;;;23.45;20.55;;;11.30;99.90;;;;;;5948147;24;20486;-41
2021/10/30 08:59:44;;;;;;;15.98;14.15;;;11.40;99.90;;;;;;5949709;24;20036;-43
2021/10/30 09:02:30;;;;;;;17.60;15.57;;;11.40;99.90;;;;;;5925073;24;20034;-42
2021/10/30 09:05:08;;;;;;;17.58;15.38;;;11.50;99.90;;;;;;5925267;24;20477;-43
2021/10/30 09:07:38;;;;;;;19.58;14.90;;;11.50;99.90;;;;;;5925197;24;20033;-43
2021/10/30 09:10:17;;;;;;;18.05;14.25;;;11.50;99.90;;;;;;5949620;24;20028;-43
2021/10/30 09:12:51;;;;;;;17.60;15.50;;;11.60;99.90;;;;;;5925549;24;20035;-41
2021/10/30 09:18:42;;;;;;;16.27;14.52;;;11.60;99.90;;;;;;6029188;23;20027;-42
2021/10/30 09:21:12;;;;;;;17.38;15.02;;;11.70;99.90;;;;;;5984419;23;20023;-42
2021/10/30 09:24:00;;;;;;;17.58;14.25;;;11.70;99.90;;;;;;6031928;23;20027;-43
2021/10/30 09:26:31;;;;;;;18.88;13.82;;;11.80;99.90;;;;;;6032471;23;20353;-41
2021/10/30 09:29:03;;;;;;;20.50;17.55;;;11.80;99.90;;;;;;6032551;23;20146;-42
2021/10/30 09:31:30;;;;;;;17.67;14.23;;;11.90;99.90;;;;;;6032873;23;20027;-41
2021/10/30 09:33:59;;;;;;;13.98;12.50;;;11.90;99.90;;;;;;6033606;23;20449;-43
2021/10/30 09:36:30;;;;;;;16.42;13.27;;;12.00;99.90;;;;;;6033496;23;20035;-42
2021/10/30 09:38:59;;;;;;;21.30;14.80;;;12.00;99.90;;;;;;6032861;23;20031;-44
2021/10/30 09:41:36;;;;;;;14.73;12.63;;;12.10;99.90;;;;;;6033121;23;20034;-42
2021/10/30 09:44:14;;;;;;;12.95;10.95;;;12.10;99.90;;;;;;6033039;23;20026;-42
2021/10/30 09:46:46;;;;;;;12.43;11.10;;;12.20;99.90;;;;;;6032664;23;20019;-42
2021/10/30 09:49:21;;;;;;;12.77;11.15;;;12.30;99.90;;;;;;6008085;23;20532;-42
2021/10/30 09:52:11;;;;;;;16.85;10.18;;;12.40;99.90;;;;;;6034081;23;20861;-43
2021/10/30 09:54:45;;;;;;;12.57;9.48;;;12.40;99.90;;;;;;5918367;24;20673;-42
2021/10/30 09:57:16;;;;;;;9.07;8.13;;;12.50;99.90;;;;;;5918607;24;20033;-43
2021/10/30 09:59:45;;;;;;;10.68;8.65;;;12.50;99.90;;;;;;5918881;24;20065;-43
2021/10/30 10:02:12;;;;;;;13.27;9.55;;;12.60;99.90;;;;;;5918541;24;20479;-43
2021/10/30 10:04:42;;;;;;;10.63;9.02;;;12.60;99.90;;;;;;5895695;24;20128;-44
2021/10/30 10:07:10;;;;;;;11.82;9.15;;;12.60;99.90;;;;;;5920021;24;20033;-43
2021/10/30 10:09:36;;;;;;;11.48;8.80;;;12.60;99.90;;;;;;5920270;24;20029;-43
2021/10/30 10:12:06;;;;;;;10.77;9.68;;;12.60;99.90;;;;;;5920504;24;20554;-45
2021/10/30 10:14:35;;;;;;;10.60;9.50;;;12.60;99.90;;;;;;5920368;24;20033;-42
2021/10/30 10:17:03;;;;;;;13.75;10.18;;;12.60;99.90;;;;;;5896443;24;20055;-43
2021/10/30 10:19:29;;;;;;;19.73;16.17;;;12.60;99.90;;;;;;5852327;24;20035;-43
2021/10/30 10:21:55;;;;;;;14.15;10.68;;;12.60;99.90;;;;;;5919985;24;20026;-45
2021/10/30 10:24:33;;;;;;;9.48;8.30;;;12.60;99.90;;;;;;5919967;24;20471;-43
2021/10/30 10:27:04;;;;;;;9.32;8.00;;;12.70;99.90;;;;;;5920636;24;20121;-42
2021/10/30 10:29:56;;;;;;;15.50;10.93;;;12.70;99.90;;;;;;5919752;24;20028;-42
2021/10/30 10:32:25;;;;;;;11.30;9.48;;;12.70;99.90;;;;;;5986592;23;20036;-43
2021/10/30 10:35:02;;;;;;;10.32;8.38;;;12.70;99.90;;;;;;5980741;23;20032;-43
2021/10/30 10:37:28;;;;;;;14.18;9.55;;;12.70;99.90;;;;;;6006039;23;20115;-43
2021/10/30 10:39:57;;;;;;;10.98;8.80;;;12.70;99.90;;;;;;6006663;23;20027;-43
2021/10/30 10:42:35;;;;;;;12.93;10.77;;;12.70;99.90;;;;;;6006789;23;20047;-42
2021/10/30 10:45:15;;;;;;;11.50;9.05;;;12.60;99.90;;;;;;5981461;23;20024;-43
2021/10/30 10:47:43;;;;;;;13.27;9.23;;;12.60;99.90;;;;;;6006176;23;20028;-44
2021/10/30 10:50:31;;;;;;;10.43;9.20;;;12.60;99.90;;;;;;6005999;23;20360;-43
2021/10/30 10:53:15;;;;;;;13.20;10.32;;;12.50;99.90;;;;;;6005861;23;20497;-44
2021/10/30 10:55:46;;;;;;;12.70;10.02;;;12.50;99.90;;;;;;6006045;23;20031;-45
2021/10/30 10:58:16;;;;;;;12.05;9.18;;;12.50;99.90;;;;;;6005881;23;20110;-45
2021/10/30 11:01:11;;;;;;;10.68;9.48;;;12.40;99.90;;;;;;6006109;23;20394;-47
2021/10/30 11:03:47;;;;;;;12.05;9.70;;;12.40;99.90;;;;;;5958928;23;20102;-45
2021/10/30 11:06:13;;;;;;;13.32;11.32;;;12.40;99.90;;;;;;6006688;23;20035;-43
2021/10/30 11:08:42;;;;;;;12.95;9.18;;;12.40;99.90;;;;;;6006881;23;20027;-43
2021/10/30 11:11:25;;;;;;;13.73;10.98;;;12.50;99.90;;;;;;6005587;23;20458;-44
2021/10/30 11:14:04;;;;;;;11.50;10.30;;;12.50;99.90;;;;;;6005914;23;20031;-44
2021/10/30 11:16:39;;;;;;;14.38;11.10;;;12.50;99.90;;;;;;6005090;23;20027;-43
2021/10/30 11:19:14;;;;;;;11.85;9.45;;;12.50;99.90;;;;;;6033000;23;20078;-42
2021/10/30 11:21:47;;;;;;;11.23;9.90;;;12.50;99.90;;;;;;6008671;23;20459;-43
2021/10/30 11:24:22;;;;;;;10.35;9.27;;;12.60;99.90;;;;;;6033720;23;20349;-43
2021/10/30 11:27:05;;;;;;;12.93;9.50;;;12.60;99.90;;;;;;6034269;23;20343;-43
2021/10/30 11:29:33;;;;;;;11.75;8.98;;;12.70;99.90;;;;;;6033812;23;20772;-42
2021/10/30 11:32:02;;;;;;;11.70;9.43;;;12.70;99.90;;;;;;6008918;23;20031;-44
2021/10/30 11:34:28;;;;;;;10.85;9.20;;;12.70;99.90;;;;;;6034317;23;20039;-44
2021/10/30 11:36:56;;;;;;;12.40;9.88;;;12.70;99.90;;;;;;6031794;23;20110;-43
2021/10/30 11:39:24;;;;;;;10.68;8.77;;;12.70;99.90;;;;;;6033853;23;20140;-44
2021/10/30 11:41:51;;;;;;;10.90;9.15;;;12.70;99.90;;;;;;6033787;23;20031;-44
2021/10/30 11:44:19;;;;;;;9.65;8.65;;;12.70;99.90;;;;;;6033850;23;20031;-42
2021/10/30 11:46:55;;;;;;;11.90;8.60;;;12.80;99.90;;;;;;6034022;23;20027;-43
2021/10/30 11:49:33;;;;;;;9.70;8.48;;;12.70;99.90;;;;;;6034141;23;20062;-43
2021/10/30 11:51:59;;;;;;;11.18;9.32;;;12.70;99.90;;;;;;6033624;23;20126;-46
2021/10/30 11:54:25;;;;;;;14.02;10.95;;;12.70;99.90;;;;;;5983391;23;20059;-43
2021/10/30 11:56:52;;;;;;;11.75;8.55;;;12.70;99.90;;;;;;6031636;23;20353;-43
2021/10/30 11:59:18;;;;;;;12.73;9.60;;;12.70;99.90;;;;;;6033552;23;20108;-43
2021/10/30 12:01:46;;;;;;;10.45;9.35;;;12.70;99.90;;;;;;6033141;23;20031;-42
2021/10/30 12:04:21;;;;;;;11.85;10.20;;;12.70;99.90;;;;;;6008765;23;20027;-42
2021/10/30 12:06:50;;;;;;;10.45;8.13;;;12.80;99.90;;;;;;6033517;23;20031;-43
2021/10/30 12:09:34;;;;;;;10.57;9.30;;;12.80;99.90;;;;;;6033674;23;20035;-43
2021/10/30 12:12:10;;;;;;;11.15;8.45;;;12.90;99.90;;;;;;6033424;23;20154;-43
2021/10/30 12:14:43;;;;;;;9.80;8.07;;;12.90;99.90;;;;;;6033971;23;20031;-43
2021/10/30 12:17:28;;;;;;;10.15;8.23;;;12.90;99.90;;;;;;6033202;23;20143;-43
2021/10/30 12:20:07;;;;;;;11.93;8.52;;;12.90;99.90;;;;;;6033925;23;20035;-44
2021/10/30 12:22:44;;;;;;;11.38;8.38;;;13.00;99.90;;;;;;5985037;23;20691;-44
2021/10/30 12:25:24;;;;;;;11.57;8.77;;;13.00;99.90;;;;;;6033519;23;20094;-45
2021/10/30 12:27:52;;;;;;;14.55;8.27;;;13.00;99.90;;;;;;6033456;23;20326;-45
2021/10/30 12:30:22;;;;;;;11.48;10.27;;;13.00;99.90;;;;;;6008666;23;20357;-43
2021/10/30 12:32:49;;;;;;;13.07;8.88;;;13.00;99.90;;;;;;6030526;23;20067;-45
2021/10/30 12:35:21;;;;;;;10.60;8.32;;;13.00;99.90;;;;;;6033360;23;20083;-43
2021/10/30 12:37:48;;;;;;;9.52;8.52;;;13.00;99.90;;;;;;6033749;23;20038;-43
2021/10/30 12:40:18;;;;;;;15.63;9.60;;;13.00;99.90;;;;;;6033934;23;20031;-43
2021/10/30 12:42:45;;;;;;;12.13;8.25;;;13.00;99.90;;;;;;6034080;23;20030;-43
2021/10/30 12:45:12;;;;;;;11.18;9.95;;;13.00;99.90;;;;;;6033908;23;20023;-43
2021/10/30 12:47:40;;;;;;;10.10;8.65;;;12.90;99.90;;;;;;6033362;23;20031;-44
2021/10/30 12:50:08;;;;;;;14.77;9.93;;;13.00;99.90;;;;;;6034235;23;20027;-43
2021/10/30 12:52:43;;;;;;;10.00;7.68;;;13.00;99.90;;;;;;6033725;23;20024;-44
2021/10/30 12:55:15;;;;;;;9.63;7.85;;;13.00;99.90;;;;;;6008787;23;20032;-43
2021/10/30 12:57:42;;;;;;;8.32;7.40;;;13.00;99.90;;;;;;6033913;23;20059;-44
2021/10/30 13:00:11;;;;;;;7.78;6.00;;;13.00;99.90;;;;;;6008302;23;20038;-44
2021/10/30 13:02:39;;;;;;;9.88;6.28;;;13.00;99.90;;;;;;6033548;23;20023;-44
2021/10/30 13:05:31;;;;;;;8.68;6.07;;;13.00;99.90;;;;;;6034969;23;20031;-43
2021/10/30 13:07:58;;;;;;;8.45;6.35;;;13.10;99.90;;;;;;6029779;23;20027;-43
2021/10/30 13:10:27;;;;;;;10.00;7.07;;;13.10;99.90;;;;;;6033329;23;20536;-45
2021/10/30 13:12:53;;;;;;;9.98;6.57;;;13.10;99.90;;;;;;6033028;23;20027;-44
2021/10/30 13:15:20;;;;;;;6.97;5.63;;;13.20;99.90;;;;;;6033749;23;20031;-43
2021/10/30 13:17:46;;;;;;;10.75;7.45;;;13.20;99.90;;;;;;6034185;23;20083;-43
2021/10/30 13:20:12;;;;;;;9.90;7.28;;;13.20;99.90;;;;;;6033462;23;20071;-43
2021/10/30 13:22:41;;;;;;;13.80;8.32;;;13.20;99.90;;;;;;6033297;23;20335;-45
2021/10/30 13:25:09;;;;;;;9.45;5.85;;;13.20;99.90;;;;;;6007588;23;20398;-43
2021/10/30 13:27:40;;;;;;;8.15;6.28;;;13.20;99.90;;;;;;6032662;23;20031;-44
2021/10/30 13:30:10;;;;;;;25.40;22.40;;;13.20;99.90;;;;;;6032722;23;20473;-44
2021/10/30 13:37:52;;;;;;;6.75;6.03;;;13.20;99.90;;;;;;4878144;27;20189;-80
2021/10/30 13:40:18;;;;;;;7.65;5.78;;;13.40;99.90;;;;;;5026972;28;20053;-78
2021/10/30 13:42:44;;;;;;;8.02;5.80;;;13.40;99.90;;;;;;5042550;28;20041;-78
2021/10/30 13:45:10;;;;;;;7.68;5.53;;;13.50;99.90;;;;;;5024244;28;20069;-80
2021/10/30 13:47:37;;;;;;;8.63;6.28;;;13.50;99.90;;;;;;5027127;28;20125;-80
2021/10/30 13:50:03;;;;;;;8.23;5.60;;;13.60;99.90;;;;;;5011252;28;20116;-78
2021/10/30 13:52:29;;;;;;;7.93;6.25;;;13.60;99.90;;;;;;5044555;28;20128;-79
2021/10/30 13:54:55;;;;;;;7.88;5.55;;;13.60;99.90;;;;;;5029348;28;20467;-79
2021/10/30 13:57:21;;;;;;;8.20;6.30;;;13.60;99.90;;;;;;5029359;28;20049;-79
2021/10/30 13:59:47;;;;;;;8.85;6.00;;;13.60;99.90;;;;;;5011850;28;20111;-79
2021/10/30 14:02:13;;;;;;;10.25;6.05;;;13.60;99.90;;;;;;5062409;28;20416;-78
2021/10/30 14:04:39;;;;;;;10.90;6.93;;;13.60;99.90;;;;;;5043512;28;20048;-79
2021/10/30 14:07:05;;;;;;;9.45;5.53;;;13.60;99.90;;;;;;5061369;28;20060;-79
2021/10/30 14:09:31;;;;;;;9.27;7.65;;;13.60;99.90;;;;;;5013257;28;20053;-78
2021/10/30 14:11:58;;;;;;;6.32;4.78;;;13.60;99.90;;;;;;5045585;28;20052;-79
2021/10/30 14:14:25;;;;;;;8.27;5.03;;;13.60;99.90;;;;;;5040526;28;20124;-82
2021/10/30 14:16:51;;;;;;;8.82;6.15;;;13.70;99.90;;;;;;4995396;28;20056;-81
2021/10/30 14:19:17;;;;;;;8.55;6.20;;;13.70;99.90;;;;;;5061130;28;20472;-76
2021/10/30 14:21:43;;;;;;;6.60;4.95;;;13.70;99.90;;;;;;5042302;28;20051;-78
2021/10/30 14:24:11;;;;;;;8.20;5.53;;;13.70;99.90;;;;;;5010351;28;20131;-78
2021/10/30 14:26:37;;;;;;;6.90;4.85;;;13.70;99.90;;;;;;5011246;28;20448;-79
2021/10/30 14:29:04;;;;;;;6.75;5.32;;;13.80;99.90;;;;;;5011776;28;20083;-78
2021/10/30 14:31:30;;;;;;;7.18;5.80;;;13.80;99.90;;;;;;5058824;28;20041;-80
2021/10/30 14:33:56;;;;;;;7.70;5.63;;;13.80;99.90;;;;;;5044508;28;20455;-80
2021/10/30 14:36:22;;;;;;;8.43;4.85;;;13.70;99.90;;;;;;5027426;28;20061;-79
2021/10/30 14:38:48;;;;;;;8.25;4.90;;;13.70;99.90;;;;;;5012271;28;20396;-80
2021/10/30 14:41:15;;;;;;;7.70;4.80;;;13.60;99.90;;;;;;5028969;28;20404;-79
2021/10/30 14:43:41;;;;;;;7.43;4.57;;;13.60;99.90;;;;;;5061788;28;20136;-80
2021/10/30 14:46:07;;;;;;;7.63;5.10;;;13.60;99.90;;;;;;5024863;28;20088;-79
2021/10/30 14:48:33;;;;;;;6.82;4.70;;;13.60;99.90;;;;;;5015738;28;20041;-77
2021/10/30 14:50:59;;;;;;;8.23;6.40;;;13.60;99.90;;;;;;5012336;28;20056;-78
2021/10/30 14:53:25;;;;;;;7.20;4.97;;;13.60;99.90;;;;;;4995605;28;20165;-79
2021/10/30 14:55:51;;;;;;;7.07;4.80;;;13.70;99.90;;;;;;5016094;28;20053;-79
2021/10/30 14:58:17;;;;;;;5.53;4.82;;;13.60;99.90;;;;;;4998687;28;20511;-79
2021/10/30 15:00:44;;;;;;;8.75;4.97;;;13.60;99.90;;;;;;4982401;28;20045;-77
2021/10/30 15:03:10;;;;;;;7.78;4.82;;;13.60;99.90;;;;;;5031276;28;20049;-78
2021/10/30 15:05:37;;;;;;;7.78;4.90;;;13.60;99.90;;;;;;5047853;28;20496;-78
2021/10/30 15:08:04;;;;;;;7.53;5.35;;;13.60;99.90;;;;;;5031311;28;20077;-76
2021/10/30 15:10:31;;;;;;;8.85;5.43;;;13.60;99.90;;;;;;5031937;28;20479;-79
2021/10/30 15:12:58;;;;;;;7.85;5.00;;;13.60;99.90;;;;;;5031580;28;20454;-79
2021/10/30 15:15:24;;;;;;;9.05;5.60;;;13.50;99.90;;;;;;4997487;28;20057;-78
2021/10/30 15:17:50;;;;;;;7.55;5.30;;;13.50;99.90;;;;;;5014264;28;20042;-79
2021/10/30 15:20:17;;;;;;;10.27;6.63;;;13.40;99.90;;;;;;4998497;28;20200;-79
2021/10/30 15:22:43;;;;;;;8.85;5.20;;;13.40;99.90;;;;;;5047809;28;20041;-77
2021/10/30 15:25:09;;;;;;;9.05;5.60;;;13.40;99.90;;;;;;5048127;28;20102;-80
2021/10/30 15:27:36;;;;;;;7.38;4.88;;;13.40;99.90;;;;;;4997919;28;20049;-77
2021/10/30 15:30:07;;;;;;;7.75;5.53;;;13.40;99.90;;;;;;4997495;28;20060;-77
2021/10/30 15:32:34;;;;;;;8.57;6.22;;;13.40;99.90;;;;;;4998238;28;20175;-79
2021/10/30 15:35:04;;;;;;;6.82;5.32;;;13.40;99.90;;;;;;4997932;28;20045;-79
2021/10/30 15:37:33;;;;;;;7.82;4.93;;;13.40;99.90;;;;;;5014469;28;20120;-78
2021/10/30 15:40:10;;;;;;;7.32;5.47;;;13.40;99.90;;;;;;5030771;28;20041;-78
2021/10/30 15:42:40;;;;;;;7.15;5.78;;;13.30;99.90;;;;;;5030331;28;20045;-78
2021/10/30 15:45:07;;;;;;;15.80;12.80;;;13.30;99.90;;;;;;5030869;28;20041;-78
2021/10/30 15:47:34;;;;;;;8.52;6.75;;;13.30;99.90;;;;;;5030671;28;20042;-78
2021/10/30 15:50:00;;;;;;;7.40;5.45;;;13.40;99.90;;;;;;5037189;28;20050;-79
2021/10/30 15:52:26;;;;;;;7.43;5.32;;;13.30;99.90;;;;;;5012773;28;20045;-78
2021/10/30 15:54:52;;;;;;;8.40;5.45;;;13.30;99.90;;;;;;5013996;28;20046;-80
2021/10/30 15:57:18;;;;;;;7.95;5.53;;;13.30;99.90;;;;;;5047123;28;20586;-80
2021/10/30 15:59:45;;;;;;;7.75;6.30;;;13.30;99.90;;;;;;5012123;28;20069;-81
2021/10/30 16:02:11;;;;;;;9.38;5.47;;;13.30;99.90;;;;;;5013840;28;20125;-80
2021/10/30 16:04:37;;;;;;;7.47;5.28;;;13.30;99.90;;;;;;5014357;28;20042;-81
2021/10/30 16:07:05;;;;;;;7.85;5.63;;;13.30;99.90;;;;;;5014097;28;20049;-81
2021/10/30 16:09:31;;;;;;;6.55;4.85;;;13.30;99.90;;;;;;5030494;28;20505;-81
2021/10/30 16:12:00;;;;;;;7.32;5.18;;;13.30;99.90;;;;;;5030290;28;20115;-81
2021/10/30 16:14:26;;;;;;;8.55;6.35;;;13.30;99.90;;;;;;5014523;28;20500;-81
2021/10/30 16:16:52;;;;;;;8.27;5.63;;;13.30;99.90;;;;;;5030365;28;20045;-81
2021/10/30 16:19:19;;;;;;;7.80;4.95;;;13.30;99.90;;;;;;5030518;28;20489;-81
2021/10/30 16:21:45;;;;;;;7.30;4.97;;;13.30;99.90;;;;;;5030009;28;20042;-79
2021/10/30 16:24:11;;;;;;;8.77;4.70;;;13.30;99.90;;;;;;5013963;28;20204;-81
2021/10/30 16:26:37;;;;;;;7.55;4.82;;;13.30;99.90;;;;;;5030438;28;20438;-80
2021/10/30 16:29:04;;;;;;;7.55;4.75;;;13.30;99.90;;;;;;4997550;28;20136;-76
2021/10/30 16:31:34;;;;;;;6.65;4.88;;;13.30;99.90;;;;;;4997394;28;20060;-80
2021/10/30 16:34:06;;;;;;;7.43;5.47;;;13.30;99.90;;;;;;4997441;28;20053;-80
2021/10/30 16:36:36;;;;;;;;;;;13.30;99.90;;;;;;5013845;28;20417;-79
2021/10/30 16:39:05;;;;;;;7.65;4.65;;;13.20;99.90;;;;;;4997151;28;19920;-79
2021/10/30 16:41:31;;;;;;;6.35;4.60;;;13.30;99.90;;;;;;4997190;28;20049;-80
2021/10/30 16:43:57;;;;;;;9.52;5.43;;;13.30;99.90;;;;;;5029703;28;20140;-78
2021/10/30 16:46:23;;;;;;;8.32;5.00;;;13.30;99.90;;;;;;4995387;28;20128;-77
2021/10/30 16:48:50;;;;;;;8.68;5.07;;;13.30;99.90;;;;;;4977435;28;20544;-78
2021/10/30 16:51:16;;;;;;;7.70;5.30;;;13.30;99.90;;;;;;5009961;28;20041;-78
2021/10/30 16:53:42;;;;;;;8.80;5.00;;;13.30;99.90;;;;;;5026405;28;20053;-76
2021/10/30 16:56:09;;;;;;;8.73;5.18;;;13.30;99.90;;;;;;5009487;28;20129;-77
2021/10/30 16:58:35;;;;;;;8.80;5.03;;;13.30;99.90;;;;;;5009827;28;20053;-78
2021/10/30 17:01:01;;;;;;;9.23;6.25;;;13.30;99.90;;;;;;4996362;28;20301;-79
2021/10/30 17:03:27;;;;;;;9.48;5.88;;;13.40;99.90;;;;;;5062570;28;20077;-78
2021/10/30 17:05:53;;;;;;;7.40;5.32;;;13.40;99.90;;;;;;4995274;28;20069;-78
2021/10/30 17:08:19;;;;;;;10.85;5.47;;;13.30;99.90;;;;;;5013344;28;20047;-80
2021/10/30 17:10:45;;;;;;;8.57;5.38;;;13.30;99.90;;;;;;4996212;28;20084;-78
2021/10/30 17:13:12;;;;;;;9.38;5.95;;;13.40;99.90;;;;;;4995806;28;20057;-80
2021/10/30 17:15:38;;;;;;;7.72;5.05;;;13.30;99.90;;;;;;5012986;28;20049;-78
2021/10/30 17:18:04;;;;;;;7.25;6.10;;;13.40;99.90;;;;;;4995238;28;20045;-78
2021/10/30 17:20:30;;;;;;;11.98;8.57;;;13.40;99.90;;;;;;4992683;28;20046;-77
2021/10/30 17:22:57;;;;;;;9.90;5.50;;;13.40;99.90;;;;;;4992855;28;20046;-77
2021/10/30 17:25:23;;;;;;;8.65;5.75;;;13.40;99.90;;;;;;5025573;28;20046;-78
2021/10/30 17:27:49;;;;;;;8.85;6.32;;;13.40;99.90;;;;;;4992559;28;20077;-80
2021/10/30 17:30:15;;;;;;;7.72;6.25;;;13.40;99.90;;;;;;5011886;28;20091;-78
2021/10/30 17:32:44;;;;;;;7.88;6.05;;;13.40;99.90;;;;;;5028475;28;20049;-78
2021/10/30 17:35:11;;;;;;;9.85;6.40;;;13.40;99.90;;;;;;5011538;28;20142;-78
2021/10/30 17:37:41;;;;;;;7.82;5.95;;;13.40;99.90;;;;;;4979008;28;20372;-78
2021/10/30 17:40:09;;;;;;;10.13;6.63;;;13.40;99.90;;;;;;4996208;28;20049;-77
2021/10/30 17:42:35;;;;;;;7.78;5.97;;;13.40;99.90;;;;;;5008091;28;20042;-80
2021/10/30 17:45:03;;;;;;;7.60;6.30;;;13.30;99.90;;;;;;5010617;28;20408;-78
2021/10/30 17:47:29;;;;;;;9.77;6.70;;;13.40;99.90;;;;;;4995138;28;20045;-80
2021/10/30 17:49:55;;;;;;;7.95;6.57;;;13.30;99.90;;;;;;4995212;28;20524;-81
2021/10/30 17:52:22;;;;;;;10.32;7.55;;;13.30;99.90;;;;;;5012608;28;20103;-80
2021/10/30 17:54:48;;;;;;;8.25;7.13;;;13.20;99.90;;;;;;5042813;28;20056;-79
2021/10/30 17:57:16;;;;;;;14.57;7.15;;;13.30;99.90;;;;;;5012022;28;20076;-78
2021/10/30 17:59:42;;;;;;;13.77;11.00;;;13.20;99.90;;;;;;4995807;28;20042;-79
2021/10/30 18:02:11;;;;;;;12.63;9.00;;;13.10;99.90;;;;;;5012586;28;20132;-78
2021/10/30 18:04:39;;;;;;;9.40;7.90;;;13.10;99.90;;;;;;5012094;28;20049;-79
2021/10/30 18:07:05;;;;;;;10.82;8.85;;;13.00;99.90;;;;;;4995165;28;20555;-79
2021/10/30 18:09:32;;;;;;;12.20;8.65;;;12.90;99.90;;;;;;4995797;28;20314;-79
2021/10/30 18:11:59;;;;;;;11.93;8.60;;;12.90;99.90;;;;;;4996202;28;20046;-79
2021/10/30 18:14:26;;;;;;;12.93;9.75;;;12.80;99.90;;;;;;5045326;28;20052;-78
2021/10/30 18:16:52;;;;;;;11.73;7.88;;;12.80;99.90;;;;;;5044777;28;20045;-78
2021/10/30 18:19:19;;;;;;;12.60;9.43;;;12.80;99.90;;;;;;5044734;28;20046;-78
2021/10/30 18:21:45;;;;;;;11.07;9.30;;;12.70;99.90;;;;;;5028121;28;20041;-78
2021/10/30 18:24:11;;;;;;;14.20;9.50;;;12.70;99.90;;;;;;5048496;28;20240;-78
2021/10/30 18:26:39;;;;;;;14.18;9.30;;;12.70;99.90;;;;;;5039134;28;20045;-78
2021/10/30 18:29:05;;;;;;;13.02;9.23;;;12.70;99.90;;;;;;5037866;28;20037;-77
2021/10/30 18:31:32;;;;;;;12.98;10.13;;;12.60;99.90;;;;;;5015784;28;20069;-78
2021/10/30 18:33:58;;;;;;;13.52;10.38;;;12.70;99.90;;;;;;5031872;28;20583;-78
2021/10/30 18:36:24;;;;;;;14.02;10.90;;;12.70;99.90;;;;;;5031474;28;20060;-77
2021/10/30 18:38:50;;;;;;;14.05;10.38;;;12.70;99.90;;;;;;5015360;28;20538;-77
2021/10/30 18:41:16;;;;;;;12.68;10.27;;;12.70;99.90;;;;;;5033683;28;20049;-78
2021/10/30 18:43:42;;;;;;;13.25;10.15;;;12.70;99.90;;;;;;5015007;28;20088;-79
2021/10/30 18:46:08;;;;;;;12.80;10.25;;;12.60;99.90;;;;;;4999150;28;20492;-78
2021/10/30 18:48:35;;;;;;;15.55;11.88;;;12.60;99.90;;;;;;4999380;28;20121;-76
2021/10/30 18:51:01;;;;;;;14.90;11.25;;;12.60;99.90;;;;;;4999112;28;20208;-77
2021/10/30 18:53:27;;;;;;;16.38;12.90;;;12.60;99.90;;;;;;4999070;28;20041;-77
2021/10/30 18:55:53;;;;;;;15.75;10.98;;;12.50;99.90;;;;;;5031619;28;20139;-78
2021/10/30 18:58:20;;;;;;;13.45;10.68;;;12.50;99.90;;;;;;5047894;28;20081;-78
2021/10/30 19:00:46;;;;;;;12.02;9.20;;;12.50;99.90;;;;;;5031076;28;20064;-78
2021/10/30 19:03:12;;;;;;;11.98;9.57;;;12.50;99.90;;;;;;5015532;28;20079;-78
2021/10/30 19:05:38;;;;;;;12.55;10.63;;;12.60;99.90;;;;;;5014999;28;20046;-77
2021/10/30 19:08:04;;;;;;;11.52;9.55;;;12.50;99.90;;;;;;4998285;28;20487;-78
2021/10/30 19:10:31;;;;;;;13.75;9.05;;;12.50;99.90;;;;;;5031112;28;20052;-77
2021/10/30 19:12:57;;;;;;;12.60;9.90;;;12.50;99.90;;;;;;5010856;28;20046;-78
2021/10/30 19:15:28;;;;;;;13.05;10.10;;;12.50;99.90;;;;;;4994962;28;20053;-78
2021/10/30 19:17:55;;;;;;;12.95;10.23;;;12.50;99.90;;;;;;5014076;28;20053;-78
2021/10/30 19:20:21;;;;;;;13.20;10.75;;;12.40;99.90;;;;;;4998549;28;20045;-78
2021/10/30 19:22:48;;;;;;;13.13;11.82;;;12.50;99.90;;;;;;4997782;28;20073;-76
2021/10/30 19:25:14;;;;;;;14.60;12.90;;;12.50;99.90;;;;;;5030637;28;20038;-80
2021/10/30 19:27:40;;;;;;;14.38;12.75;;;12.50;99.90;;;;;;5015117;28;20122;-78
2021/10/30 19:30:09;;;;;;;15.43;13.82;;;12.50;99.90;;;;;;5030908;28;20049;-78
2021/10/30 19:32:36;;;;;;;15.77;14.13;;;12.50;99.90;;;;;;5030376;28;20501;-78
2021/10/30 19:35:03;;;;;;;17.63;15.68;;;12.50;99.90;;;;;;5030479;28;20050;-78
2021/10/30 19:37:29;;;;;;;16.75;14.75;;;12.50;99.90;;;;;;5046785;28;20567;-79
2021/10/30 19:39:55;;;;;;;16.13;14.13;;;12.50;99.90;;;;;;5014107;28;20049;-78
2021/10/30 19:42:23;;;;;;;18.63;14.73;;;12.50;99.90;;;;;;5014402;28;20089;-78
2021/10/30 19:44:50;;;;;;;18.25;15.63;;;12.50;99.90;;;;;;5014112;28;20048;-78
2021/10/30 19:47:16;;;;;;;18.08;14.63;;;12.60;99.90;;;;;;5014035;28;20389;-78
2021/10/30 19:49:42;;;;;;;16.08;14.38;;;12.60;99.90;;;;;;5014206;28;20136;-78
2021/10/30 19:52:08;;;;;;;16.20;14.50;;;12.60;99.90;;;;;;4998376;28;20056;-78
2021/10/30 19:54:36;;;;;;;17.83;16.05;;;12.50;99.90;;;;;;5013753;28;20049;-78
2021/10/30 19:57:03;;;;;;;19.15;16.80;;;12.50;99.90;;;;;;4997777;28;20053;-78
2021/10/30 19:59:29;;;;;;;20.80;17.77;;;12.60;99.90;;;;;;5014345;28;20488;-78
2021/10/30 20:01:55;;;;;;;18.20;16.40;;;12.60;99.90;;;;;;4997247;28;20042;-78
2021/10/30 20:04:21;;;;;;;18.48;16.65;;;12.50;99.90;;;;;;4996162;28;20038;-78